sensor_id;sensor_type;location;lat;lon;timestamp;P1;durP1;ratioP1;P2;durP2;ratioP2
7029;SDS011;3556;53.500;10.176;2022-10-31T00:01:53;49.83;;;31.27;;
7029;SDS011;3556;53.500;10.176;2022-10-31T00:04:19;40.13;;;28.80;;
7029;SDS011;3556;53.500;10.176;2022-10-31T00:06:44;47.93;;;30.60;;
7029;SDS011;3556;53.500;10.176;2022-10-31T00:09:10;51.37;;;29.93;;
7029;SDS011;3556;53.500;10.176;2022-10-31T00:11:36;48.63;;;30.23;;
7029;SDS011;3556;53.500;10.176;2022-10-31T00:14:02;39.03;;;27.77;;
7029;SDS011;3556;53.500;10.176;2022-10-31T00:16:28;47.13;;;28.07;;
7029;SDS011;3556;53.500;10.176;2022-10-31T00:18:55;53.67;;;30.13;;
7029;SDS011;3556;53.500;10.176;2022-10-31T00:21:23;40.80;;;27.60;;
7029;SDS011;3556;53.500;10.176;2022-10-31T00:23:49;54.07;;;29.30;;
7029;SDS011;3556;53.500;10.176;2022-10-31T00:26:14;46.63;;;28.77;;
7029;SDS011;3556;53.500;10.176;2022-10-31T00:28:41;48.47;;;28.80;;
7029;SDS011;3556;53.500;10.176;2022-10-31T00:31:08;46.03;;;28.90;;
7029;SDS011;3556;53.500;10.176;2022-10-31T00:33:35;41.67;;;26.70;;
7029;SDS011;3556;53.500;10.176;2022-10-31T00:36:02;47.73;;;28.60;;
7029;SDS011;3556;53.500;10.176;2022-10-31T00:38:28;40.60;;;25.87;;
7029;SDS011;3556;53.500;10.176;2022-10-31T00:40:54;39.77;;;25.73;;
7029;SDS011;3556;53.500;10.176;2022-10-31T00:43:20;35.30;;;25.17;;
7029;SDS011;3556;53.500;10.176;2022-10-31T00:45:45;37.40;;;24.90;;
7029;SDS011;3556;53.500;10.176;2022-10-31T00:48:11;37.93;;;25.20;;
7029;SDS011;3556;53.500;10.176;2022-10-31T00:50:37;41.57;;;25.30;;
7029;SDS011;3556;53.500;10.176;2022-10-31T00:53:03;38.70;;;24.50;;
7029;SDS011;3556;53.500;10.176;2022-10-31T00:55:29;34.20;;;23.43;;
7029;SDS011;3556;53.500;10.176;2022-10-31T00:57:54;35.73;;;23.27;;
7029;SDS011;3556;53.500;10.176;2022-10-31T01:00:20;33.23;;;22.83;;
7029;SDS011;3556;53.500;10.176;2022-10-31T01:02:46;38.77;;;23.07;;
7029;SDS011;3556;53.500;10.176;2022-10-31T01:05:12;34.53;;;22.13;;
7029;SDS011;3556;53.500;10.176;2022-10-31T01:07:38;39.23;;;23.00;;
7029;SDS011;3556;53.500;10.176;2022-10-31T01:10:05;36.40;;;23.30;;
7029;SDS011;3556;53.500;10.176;2022-10-31T01:12:38;39.43;;;23.60;;
7029;SDS011;3556;53.500;10.176;2022-10-31T01:15:05;30.70;;;21.70;;
7029;SDS011;3556;53.500;10.176;2022-10-31T01:17:31;34.23;;;23.93;;
7029;SDS011;3556;53.500;10.176;2022-10-31T01:19:57;37.80;;;21.90;;
7029;SDS011;3556;53.500;10.176;2022-10-31T01:22:22;35.97;;;21.57;;
7029;SDS011;3556;53.500;10.176;2022-10-31T01:24:48;37.13;;;22.70;;
7029;SDS011;3556;53.500;10.176;2022-10-31T01:27:13;37.67;;;22.30;;
7029;SDS011;3556;53.500;10.176;2022-10-31T01:29:39;31.50;;;22.27;;
7029;SDS011;3556;53.500;10.176;2022-10-31T01:32:04;43.10;;;23.20;;
7029;SDS011;3556;53.500;10.176;2022-10-31T01:34:30;34.90;;;23.37;;
7029;SDS011;3556;53.500;10.176;2022-10-31T01:36:55;32.13;;;20.60;;
7029;SDS011;3556;53.500;10.176;2022-10-31T01:39:21;31.13;;;21.43;;
7029;SDS011;3556;53.500;10.176;2022-10-31T01:41:48;31.43;;;21.67;;
7029;SDS011;3556;53.500;10.176;2022-10-31T01:46:46;30.10;;;20.80;;
7029;SDS011;3556;53.500;10.176;2022-10-31T01:51:53;34.67;;;21.50;;
7029;SDS011;3556;53.500;10.176;2022-10-31T01:54:24;26.97;;;20.70;;
7029;SDS011;3556;53.500;10.176;2022-10-31T01:56:56;22.87;;;18.97;;
7029;SDS011;3556;53.500;10.176;2022-10-31T01:59:24;28.57;;;19.23;;
7029;SDS011;3556;53.500;10.176;2022-10-31T02:01:53;30.87;;;19.33;;
7029;SDS011;3556;53.500;10.176;2022-10-31T02:04:19;28.80;;;20.20;;
7029;SDS011;3556;53.500;10.176;2022-10-31T02:06:47;34.03;;;20.97;;
7029;SDS011;3556;53.500;10.176;2022-10-31T02:09:16;29.23;;;19.67;;
7029;SDS011;3556;53.500;10.176;2022-10-31T02:11:48;26.67;;;19.00;;
7029;SDS011;3556;53.500;10.176;2022-10-31T02:14:16;34.60;;;20.37;;
7029;SDS011;3556;53.500;10.176;2022-10-31T02:16:43;33.77;;;21.20;;
7029;SDS011;3556;53.500;10.176;2022-10-31T02:19:08;25.30;;;18.70;;
7029;SDS011;3556;53.500;10.176;2022-10-31T02:30:13;26.70;;;18.27;;
7029;SDS011;3556;53.500;10.176;2022-10-31T02:33:00;29.30;;;18.87;;
7029;SDS011;3556;53.500;10.176;2022-10-31T02:35:50;28.43;;;19.43;;
7029;SDS011;3556;53.500;10.176;2022-10-31T02:41:20;47.10;;;22.93;;
7029;SDS011;3556;53.500;10.176;2022-10-31T02:44:03;32.90;;;19.53;;
7029;SDS011;3556;53.500;10.176;2022-10-31T02:49:27;27.37;;;18.73;;
7029;SDS011;3556;53.500;10.176;2022-10-31T02:51:58;29.53;;;19.03;;
7029;SDS011;3556;53.500;10.176;2022-10-31T02:54:25;35.37;;;20.40;;
7029;SDS011;3556;53.500;10.176;2022-10-31T02:56:54;30.77;;;19.87;;
7029;SDS011;3556;53.500;10.176;2022-10-31T02:59:27;27.67;;;19.83;;
7029;SDS011;3556;53.500;10.176;2022-10-31T03:07:20;27.00;;;18.57;;
7029;SDS011;3556;53.500;10.176;2022-10-31T03:12:56;24.43;;;18.53;;
7029;SDS011;3556;53.500;10.176;2022-10-31T03:15:37;23.80;;;18.07;;
7029;SDS011;3556;53.500;10.176;2022-10-31T03:18:32;34.47;;;19.20;;
7029;SDS011;3556;53.500;10.176;2022-10-31T03:21:12;25.07;;;18.80;;
7029;SDS011;3556;53.500;10.176;2022-10-31T03:23:40;25.20;;;19.00;;
7029;SDS011;3556;53.500;10.176;2022-10-31T03:26:08;32.43;;;19.23;;
7029;SDS011;3556;53.500;10.176;2022-10-31T03:28:43;39.27;;;19.37;;
7029;SDS011;3556;53.500;10.176;2022-10-31T03:31:19;30.10;;;19.43;;
7029;SDS011;3556;53.500;10.176;2022-10-31T03:33:49;24.03;;;18.90;;
7029;SDS011;3556;53.500;10.176;2022-10-31T03:36:17;30.00;;;18.67;;
7029;SDS011;3556;53.500;10.176;2022-10-31T03:38:44;30.13;;;18.90;;
7029;SDS011;3556;53.500;10.176;2022-10-31T03:41:13;27.30;;;18.77;;
7029;SDS011;3556;53.500;10.176;2022-10-31T03:43:47;38.17;;;19.57;;
7029;SDS011;3556;53.500;10.176;2022-10-31T03:46:18;29.53;;;19.07;;
7029;SDS011;3556;53.500;10.176;2022-10-31T03:48:44;23.73;;;17.87;;
7029;SDS011;3556;53.500;10.176;2022-10-31T03:51:13;29.30;;;19.00;;
7029;SDS011;3556;53.500;10.176;2022-10-31T03:54:08;33.07;;;19.80;;
7029;SDS011;3556;53.500;10.176;2022-10-31T03:56:56;41.40;;;20.80;;
7029;SDS011;3556;53.500;10.176;2022-10-31T03:59:35;38.50;;;21.90;;
7029;SDS011;3556;53.500;10.176;2022-10-31T04:02:08;35.43;;;22.27;;
7029;SDS011;3556;53.500;10.176;2022-10-31T04:04:39;36.17;;;21.97;;
7029;SDS011;3556;53.500;10.176;2022-10-31T04:07:05;38.97;;;23.00;;
7029;SDS011;3556;53.500;10.176;2022-10-31T04:09:33;39.90;;;22.20;;
7029;SDS011;3556;53.500;10.176;2022-10-31T04:12:01;39.57;;;23.40;;
7029;SDS011;3556;53.500;10.176;2022-10-31T04:14:30;42.23;;;22.47;;
7029;SDS011;3556;53.500;10.176;2022-10-31T04:16:57;38.40;;;22.80;;
7029;SDS011;3556;53.500;10.176;2022-10-31T04:19:24;32.73;;;21.37;;
7029;SDS011;3556;53.500;10.176;2022-10-31T04:21:49;42.67;;;24.73;;
7029;SDS011;3556;53.500;10.176;2022-10-31T04:24:15;36.03;;;21.83;;
7029;SDS011;3556;53.500;10.176;2022-10-31T04:26:40;29.33;;;20.93;;
7029;SDS011;3556;53.500;10.176;2022-10-31T04:29:06;29.27;;;20.63;;
7029;SDS011;3556;53.500;10.176;2022-10-31T04:31:31;35.37;;;21.63;;
7029;SDS011;3556;53.500;10.176;2022-10-31T04:33:57;37.53;;;22.97;;
7029;SDS011;3556;53.500;10.176;2022-10-31T04:36:22;57.40;;;25.53;;
7029;SDS011;3556;53.500;10.176;2022-10-31T04:38:48;50.93;;;24.50;;
7029;SDS011;3556;53.500;10.176;2022-10-31T04:41:13;44.07;;;24.10;;
7029;SDS011;3556;53.500;10.176;2022-10-31T04:43:39;49.10;;;23.90;;
7029;SDS011;3556;53.500;10.176;2022-10-31T04:46:05;47.47;;;24.60;;
7029;SDS011;3556;53.500;10.176;2022-10-31T04:48:30;49.50;;;25.07;;
7029;SDS011;3556;53.500;10.176;2022-10-31T04:50:59;85.07;;;25.50;;
7029;SDS011;3556;53.500;10.176;2022-10-31T04:53:25;51.23;;;24.90;;
7029;SDS011;3556;53.500;10.176;2022-10-31T04:55:51;63.43;;;26.53;;
7029;SDS011;3556;53.500;10.176;2022-10-31T04:58:16;50.00;;;24.27;;
7029;SDS011;3556;53.500;10.176;2022-10-31T05:00:42;68.57;;;27.40;;
7029;SDS011;3556;53.500;10.176;2022-10-31T05:03:07;56.73;;;27.27;;
7029;SDS011;3556;53.500;10.176;2022-10-31T05:05:33;54.47;;;26.67;;
7029;SDS011;3556;53.500;10.176;2022-10-31T05:07:58;71.20;;;29.10;;
7029;SDS011;3556;53.500;10.176;2022-10-31T05:10:26;60.77;;;28.43;;
7029;SDS011;3556;53.500;10.176;2022-10-31T05:12:56;58.23;;;30.37;;
7029;SDS011;3556;53.500;10.176;2022-10-31T05:15:24;73.03;;;30.80;;
7029;SDS011;3556;53.500;10.176;2022-10-31T05:17:51;52.93;;;28.30;;
7029;SDS011;3556;53.500;10.176;2022-10-31T05:20:18;84.23;;;30.67;;
7029;SDS011;3556;53.500;10.176;2022-10-31T05:22:48;70.03;;;29.17;;
7029;SDS011;3556;53.500;10.176;2022-10-31T05:25:15;53.33;;;27.20;;
7029;SDS011;3556;53.500;10.176;2022-10-31T05:27:42;84.43;;;33.00;;
7029;SDS011;3556;53.500;10.176;2022-10-31T05:30:09;66.67;;;29.60;;
7029;SDS011;3556;53.500;10.176;2022-10-31T05:32:37;65.40;;;29.67;;
7029;SDS011;3556;53.500;10.176;2022-10-31T05:35:04;67.03;;;29.70;;
7029;SDS011;3556;53.500;10.176;2022-10-31T05:37:33;63.47;;;30.27;;
7029;SDS011;3556;53.500;10.176;2022-10-31T05:39:59;57.20;;;29.10;;
7029;SDS011;3556;53.500;10.176;2022-10-31T05:42:24;79.77;;;31.90;;
7029;SDS011;3556;53.500;10.176;2022-10-31T05:44:50;58.17;;;30.40;;
7029;SDS011;3556;53.500;10.176;2022-10-31T05:47:16;61.23;;;30.70;;
7029;SDS011;3556;53.500;10.176;2022-10-31T05:49:41;70.97;;;31.80;;
7029;SDS011;3556;53.500;10.176;2022-10-31T05:52:07;69.50;;;33.87;;
7029;SDS011;3556;53.500;10.176;2022-10-31T05:54:32;75.63;;;33.37;;
7029;SDS011;3556;53.500;10.176;2022-10-31T05:56:58;65.33;;;33.90;;
7029;SDS011;3556;53.500;10.176;2022-10-31T05:59:23;75.67;;;33.50;;
7029;SDS011;3556;53.500;10.176;2022-10-31T06:01:49;68.30;;;33.07;;
7029;SDS011;3556;53.500;10.176;2022-10-31T06:04:14;65.70;;;31.23;;
7029;SDS011;3556;53.500;10.176;2022-10-31T06:06:40;61.70;;;30.70;;
7029;SDS011;3556;53.500;10.176;2022-10-31T06:09:05;72.87;;;31.70;;
7029;SDS011;3556;53.500;10.176;2022-10-31T06:11:31;57.83;;;31.07;;
7029;SDS011;3556;53.500;10.176;2022-10-31T06:13:56;67.23;;;32.00;;
7029;SDS011;3556;53.500;10.176;2022-10-31T06:16:22;65.10;;;31.67;;
7029;SDS011;3556;53.500;10.176;2022-10-31T06:18:47;64.20;;;32.47;;
7029;SDS011;3556;53.500;10.176;2022-10-31T06:21:13;54.97;;;30.30;;
7029;SDS011;3556;53.500;10.176;2022-10-31T06:23:39;72.53;;;34.50;;
7029;SDS011;3556;53.500;10.176;2022-10-31T06:26:04;68.47;;;33.10;;
7029;SDS011;3556;53.500;10.176;2022-10-31T06:28:30;59.53;;;31.87;;
7029;SDS011;3556;53.500;10.176;2022-10-31T06:30:55;69.53;;;32.70;;
7029;SDS011;3556;53.500;10.176;2022-10-31T06:33:21;85.87;;;35.10;;
7029;SDS011;3556;53.500;10.176;2022-10-31T06:35:46;85.17;;;35.80;;
7029;SDS011;3556;53.500;10.176;2022-10-31T06:38:13;73.20;;;34.63;;
7029;SDS011;3556;53.500;10.176;2022-10-31T06:40:38;74.80;;;33.10;;
7029;SDS011;3556;53.500;10.176;2022-10-31T06:43:04;71.70;;;34.50;;
7029;SDS011;3556;53.500;10.176;2022-10-31T06:45:30;92.80;;;35.23;;
7029;SDS011;3556;53.500;10.176;2022-10-31T06:47:55;64.83;;;32.77;;
7029;SDS011;3556;53.500;10.176;2022-10-31T06:50:22;78.57;;;36.97;;
7029;SDS011;3556;53.500;10.176;2022-10-31T06:52:51;81.07;;;35.93;;
7029;SDS011;3556;53.500;10.176;2022-10-31T06:55:18;78.07;;;35.13;;
7029;SDS011;3556;53.500;10.176;2022-10-31T06:57:55;66.37;;;33.70;;
7029;SDS011;3556;53.500;10.176;2022-10-31T07:00:22;80.87;;;35.07;;
7029;SDS011;3556;53.500;10.176;2022-10-31T07:02:59;70.30;;;32.90;;
7029;SDS011;3556;53.500;10.176;2022-10-31T07:05:27;80.53;;;36.50;;
7029;SDS011;3556;53.500;10.176;2022-10-31T07:07:56;95.53;;;36.93;;
7029;SDS011;3556;53.500;10.176;2022-10-31T07:10:24;82.00;;;36.10;;
7029;SDS011;3556;53.500;10.176;2022-10-31T07:13:10;100.50;;;37.70;;
7029;SDS011;3556;53.500;10.176;2022-10-31T07:15:38;102.43;;;38.20;;
7029;SDS011;3556;53.500;10.176;2022-10-31T07:18:05;93.97;;;38.20;;
7029;SDS011;3556;53.500;10.176;2022-10-31T07:20:32;103.67;;;38.30;;
7029;SDS011;3556;53.500;10.176;2022-10-31T07:22:58;219.37;;;42.87;;
7029;SDS011;3556;53.500;10.176;2022-10-31T07:25:25;261.17;;;46.47;;
7029;SDS011;3556;53.500;10.176;2022-10-31T07:27:51;136.10;;;40.97;;
7029;SDS011;3556;53.500;10.176;2022-10-31T07:30:16;158.87;;;42.20;;
7029;SDS011;3556;53.500;10.176;2022-10-31T07:32:46;184.27;;;42.97;;
7029;SDS011;3556;53.500;10.176;2022-10-31T07:35:15;129.53;;;42.00;;
7029;SDS011;3556;53.500;10.176;2022-10-31T07:37:42;169.33;;;40.70;;
7029;SDS011;3556;53.500;10.176;2022-10-31T07:40:08;214.40;;;44.70;;
7029;SDS011;3556;53.500;10.176;2022-10-31T07:42:35;357.37;;;45.67;;
7029;SDS011;3556;53.500;10.176;2022-10-31T07:45:01;166.20;;;42.00;;
7029;SDS011;3556;53.500;10.176;2022-10-31T07:47:27;171.33;;;43.87;;
7029;SDS011;3556;53.500;10.176;2022-10-31T07:49:53;265.07;;;44.67;;
7029;SDS011;3556;53.500;10.176;2022-10-31T07:52:18;202.23;;;43.63;;
7029;SDS011;3556;53.500;10.176;2022-10-31T07:54:44;195.53;;;44.60;;
7029;SDS011;3556;53.500;10.176;2022-10-31T07:57:09;168.73;;;40.57;;
7029;SDS011;3556;53.500;10.176;2022-10-31T07:59:35;158.80;;;39.80;;
7029;SDS011;3556;53.500;10.176;2022-10-31T08:02:00;164.13;;;39.50;;
7029;SDS011;3556;53.500;10.176;2022-10-31T08:04:26;183.87;;;40.00;;
7029;SDS011;3556;53.500;10.176;2022-10-31T08:06:51;169.00;;;38.70;;
7029;SDS011;3556;53.500;10.176;2022-10-31T08:09:17;186.97;;;39.23;;
7029;SDS011;3556;53.500;10.176;2022-10-31T08:11:42;159.63;;;40.67;;
7029;SDS011;3556;53.500;10.176;2022-10-31T08:14:08;143.03;;;35.77;;
7029;SDS011;3556;53.500;10.176;2022-10-31T08:16:33;135.77;;;36.17;;
7029;SDS011;3556;53.500;10.176;2022-10-31T08:18:59;139.03;;;36.50;;
7029;SDS011;3556;53.500;10.176;2022-10-31T08:21:25;139.40;;;36.60;;
7029;SDS011;3556;53.500;10.176;2022-10-31T08:23:51;132.67;;;35.23;;
7029;SDS011;3556;53.500;10.176;2022-10-31T08:26:16;115.30;;;34.03;;
7029;SDS011;3556;53.500;10.176;2022-10-31T08:28:42;115.83;;;32.60;;
7029;SDS011;3556;53.500;10.176;2022-10-31T08:31:07;140.80;;;36.20;;
7029;SDS011;3556;53.500;10.176;2022-10-31T08:33:35;112.80;;;34.97;;
7029;SDS011;3556;53.500;10.176;2022-10-31T08:36:00;106.03;;;35.17;;
7029;SDS011;3556;53.500;10.176;2022-10-31T08:38:26;111.00;;;35.13;;
7029;SDS011;3556;53.500;10.176;2022-10-31T08:40:51;97.17;;;31.90;;
7029;SDS011;3556;53.500;10.176;2022-10-31T08:43:17;114.67;;;35.23;;
7029;SDS011;3556;53.500;10.176;2022-10-31T08:45:44;92.40;;;31.83;;
7029;SDS011;3556;53.500;10.176;2022-10-31T08:48:13;109.90;;;32.90;;
7029;SDS011;3556;53.500;10.176;2022-10-31T08:50:40;141.87;;;39.37;;
7029;SDS011;3556;53.500;10.176;2022-10-31T08:53:08;117.40;;;39.90;;
7029;SDS011;3556;53.500;10.176;2022-10-31T08:55:36;126.77;;;40.40;;
7029;SDS011;3556;53.500;10.176;2022-10-31T08:58:04;129.83;;;39.77;;
7029;SDS011;3556;53.500;10.176;2022-10-31T09:00:31;132.10;;;41.90;;
7029;SDS011;3556;53.500;10.176;2022-10-31T09:02:58;138.47;;;40.20;;
7029;SDS011;3556;53.500;10.176;2022-10-31T09:05:25;126.67;;;40.97;;
7029;SDS011;3556;53.500;10.176;2022-10-31T09:07:50;136.60;;;40.57;;
7029;SDS011;3556;53.500;10.176;2022-10-31T09:10:19;132.13;;;39.57;;
7029;SDS011;3556;53.500;10.176;2022-10-31T09:12:45;141.30;;;38.57;;
7029;SDS011;3556;53.500;10.176;2022-10-31T09:15:10;130.03;;;38.90;;
7029;SDS011;3556;53.500;10.176;2022-10-31T09:17:36;136.47;;;39.63;;
7029;SDS011;3556;53.500;10.176;2022-10-31T09:20:01;121.93;;;38.33;;
7029;SDS011;3556;53.500;10.176;2022-10-31T09:22:27;125.23;;;39.33;;
7029;SDS011;3556;53.500;10.176;2022-10-31T09:24:53;118.83;;;37.87;;
7029;SDS011;3556;53.500;10.176;2022-10-31T09:27:18;105.73;;;34.90;;
7029;SDS011;3556;53.500;10.176;2022-10-31T09:29:44;111.50;;;34.90;;
7029;SDS011;3556;53.500;10.176;2022-10-31T09:32:09;105.70;;;33.03;;
7029;SDS011;3556;53.500;10.176;2022-10-31T09:34:35;84.83;;;30.63;;
7029;SDS011;3556;53.500;10.176;2022-10-31T09:37:00;93.13;;;32.60;;
7029;SDS011;3556;53.500;10.176;2022-10-31T09:39:26;100.37;;;33.80;;
7029;SDS011;3556;53.500;10.176;2022-10-31T09:44:22;83.87;;;31.50;;
7029;SDS011;3556;53.500;10.176;2022-10-31T09:50:22;73.03;;;28.00;;
7029;SDS011;3556;53.500;10.176;2022-10-31T09:52:29;67.87;;;28.60;;
7029;SDS011;3556;53.500;10.176;2022-10-31T09:54:58;67.10;;;28.87;;
7029;SDS011;3556;53.500;10.176;2022-10-31T09:57:40;67.83;;;30.10;;
7029;SDS011;3556;53.500;10.176;2022-10-31T10:00:09;62.03;;;26.57;;
7029;SDS011;3556;53.500;10.176;2022-10-31T10:05:15;59.83;;;26.90;;
7029;SDS011;3556;53.500;10.176;2022-10-31T10:08:03;66.70;;;28.07;;
7029;SDS011;3556;53.500;10.176;2022-10-31T10:10:50;63.23;;;27.90;;
7029;SDS011;3556;53.500;10.176;2022-10-31T10:13:35;54.07;;;26.70;;
7029;SDS011;3556;53.500;10.176;2022-10-31T10:19:27;59.97;;;24.90;;
7029;SDS011;3556;53.500;10.176;2022-10-31T10:22:15;50.90;;;25.37;;
7029;SDS011;3556;53.500;10.176;2022-10-31T10:25:02;55.50;;;27.43;;
7029;SDS011;3556;53.500;10.176;2022-10-31T10:30:38;59.40;;;27.20;;
7029;SDS011;3556;53.500;10.176;2022-10-31T10:33:32;61.60;;;26.50;;
7029;SDS011;3556;53.500;10.176;2022-10-31T10:36:04;46.80;;;22.93;;
7029;SDS011;3556;53.500;10.176;2022-10-31T10:41:04;53.67;;;26.83;;
7029;SDS011;3556;53.500;10.176;2022-10-31T10:43:36;62.97;;;27.37;;
7029;SDS011;3556;53.500;10.176;2022-10-31T10:52:04;52.07;;;25.80;;
7029;SDS011;3556;53.500;10.176;2022-10-31T11:00:23;83.97;;;35.53;;
7029;SDS011;3556;53.500;10.176;2022-10-31T11:02:51;48.37;;;25.90;;
7029;SDS011;3556;53.500;10.176;2022-10-31T11:07:49;40.93;;;23.43;;
7029;SDS011;3556;53.500;10.176;2022-10-31T11:10:15;46.10;;;23.80;;
7029;SDS011;3556;53.500;10.176;2022-10-31T11:12:42;35.93;;;23.10;;
7029;SDS011;3556;53.500;10.176;2022-10-31T11:15:20;45.77;;;25.07;;
7029;SDS011;3556;53.500;10.176;2022-10-31T11:17:48;42.10;;;22.37;;
7029;SDS011;3556;53.500;10.176;2022-10-31T11:20:23;41.93;;;23.07;;
7029;SDS011;3556;53.500;10.176;2022-10-31T11:23:04;41.70;;;24.23;;
7029;SDS011;3556;53.500;10.176;2022-10-31T11:25:40;47.43;;;24.23;;
7029;SDS011;3556;53.500;10.176;2022-10-31T11:28:17;40.90;;;23.87;;
7029;SDS011;3556;53.500;10.176;2022-10-31T11:30:51;35.97;;;22.13;;
7029;SDS011;3556;53.500;10.176;2022-10-31T11:33:21;48.37;;;23.77;;
7029;SDS011;3556;53.500;10.176;2022-10-31T11:35:57;43.43;;;23.20;;
7029;SDS011;3556;53.500;10.176;2022-10-31T11:38:32;42.97;;;24.17;;
7029;SDS011;3556;53.500;10.176;2022-10-31T11:41:15;41.57;;;23.33;;
7029;SDS011;3556;53.500;10.176;2022-10-31T11:44:02;43.67;;;24.20;;
7029;SDS011;3556;53.500;10.176;2022-10-31T11:46:49;41.33;;;21.57;;
7029;SDS011;3556;53.500;10.176;2022-10-31T11:49:25;36.20;;;20.90;;
7029;SDS011;3556;53.500;10.176;2022-10-31T11:54:58;41.37;;;21.77;;
7029;SDS011;3556;53.500;10.176;2022-10-31T12:00:25;37.00;;;21.23;;
7029;SDS011;3556;53.500;10.176;2022-10-31T12:03:06;45.70;;;23.90;;
7029;SDS011;3556;53.500;10.176;2022-10-31T12:05:58;37.57;;;21.60;;
7029;SDS011;3556;53.500;10.176;2022-10-31T12:08:29;36.50;;;20.17;;
7029;SDS011;3556;53.500;10.176;2022-10-31T12:11:06;30.07;;;19.97;;
7029;SDS011;3556;53.500;10.176;2022-10-31T12:13:56;40.27;;;23.07;;
7029;SDS011;3556;53.500;10.176;2022-10-31T12:16:54;33.53;;;19.70;;
7029;SDS011;3556;53.500;10.176;2022-10-31T12:19:39;37.20;;;21.40;;
7029;SDS011;3556;53.500;10.176;2022-10-31T12:22:12;39.97;;;20.90;;
7029;SDS011;3556;53.500;10.176;2022-10-31T12:24:58;30.33;;;20.13;;
7029;SDS011;3556;53.500;10.176;2022-10-31T12:27:43;33.50;;;19.40;;
7029;SDS011;3556;53.500;10.176;2022-10-31T12:35:52;33.17;;;20.40;;
7029;SDS011;3556;53.500;10.176;2022-10-31T12:38:42;30.77;;;20.17;;
7029;SDS011;3556;53.500;10.176;2022-10-31T12:41:44;29.30;;;18.30;;
7029;SDS011;3556;53.500;10.176;2022-10-31T12:49:38;26.50;;;17.90;;
7029;SDS011;3556;53.500;10.176;2022-10-31T12:57:36;26.77;;;16.90;;
7029;SDS011;3556;53.500;10.176;2022-10-31T13:00:15;24.53;;;15.77;;
7029;SDS011;3556;53.500;10.176;2022-10-31T13:03:00;24.60;;;16.40;;
7029;SDS011;3556;53.500;10.176;2022-10-31T13:05:42;25.00;;;15.20;;
7029;SDS011;3556;53.500;10.176;2022-10-31T13:11:02;20.20;;;14.97;;
7029;SDS011;3556;53.500;10.176;2022-10-31T13:13:45;26.47;;;15.13;;
7029;SDS011;3556;53.500;10.176;2022-10-31T13:16:19;21.80;;;14.60;;
7029;SDS011;3556;53.500;10.176;2022-10-31T13:18:48;22.40;;;14.20;;
7029;SDS011;3556;53.500;10.176;2022-10-31T13:21:30;20.37;;;14.57;;
7029;SDS011;3556;53.500;10.176;2022-10-31T13:24:01;21.03;;;15.47;;
7029;SDS011;3556;53.500;10.176;2022-10-31T13:29:08;17.80;;;13.63;;
7029;SDS011;3556;53.500;10.176;2022-10-31T13:31:46;24.30;;;14.77;;
7029;SDS011;3556;53.500;10.176;2022-10-31T13:43:12;17.63;;;13.07;;
7029;SDS011;3556;53.500;10.176;2022-10-31T13:46:25;18.60;;;13.07;;
7029;SDS011;3556;53.500;10.176;2022-10-31T13:48:59;21.27;;;13.77;;
7029;SDS011;3556;53.500;10.176;2022-10-31T13:51:26;22.87;;;13.33;;
7029;SDS011;3556;53.500;10.176;2022-10-31T13:53:58;16.30;;;11.90;;
7029;SDS011;3556;53.500;10.176;2022-10-31T13:56:25;18.13;;;12.23;;
7029;SDS011;3556;53.500;10.176;2022-10-31T13:58:57;17.73;;;11.57;;
7029;SDS011;3556;53.500;10.176;2022-10-31T14:01:44;12.60;;;11.30;;
7029;SDS011;3556;53.500;10.176;2022-10-31T14:04:25;15.80;;;11.87;;
7029;SDS011;3556;53.500;10.176;2022-10-31T14:07:06;19.87;;;12.77;;
7029;SDS011;3556;53.500;10.176;2022-10-31T14:12:04;14.10;;;11.30;;
7029;SDS011;3556;53.500;10.176;2022-10-31T14:14:34;13.10;;;10.77;;
7029;SDS011;3556;53.500;10.176;2022-10-31T14:17:15;14.40;;;11.60;;
7029;SDS011;3556;53.500;10.176;2022-10-31T14:20:00;14.17;;;11.97;;
7029;SDS011;3556;53.500;10.176;2022-10-31T14:22:30;16.77;;;12.03;;
7029;SDS011;3556;53.500;10.176;2022-10-31T14:24:57;17.30;;;12.87;;
7029;SDS011;3556;53.500;10.176;2022-10-31T14:29:51;18.53;;;12.97;;
7029;SDS011;3556;53.500;10.176;2022-10-31T14:32:19;14.37;;;12.50;;
7029;SDS011;3556;53.500;10.176;2022-10-31T14:34:55;13.87;;;11.60;;
7029;SDS011;3556;53.500;10.176;2022-10-31T14:37:32;23.40;;;13.60;;
7029;SDS011;3556;53.500;10.176;2022-10-31T14:53:14;16.40;;;13.70;;
7029;SDS011;3556;53.500;10.176;2022-10-31T14:55:53;16.73;;;13.67;;
7029;SDS011;3556;53.500;10.176;2022-10-31T14:58:28;21.87;;;14.90;;
7029;SDS011;3556;53.500;10.176;2022-10-31T15:00:58;18.57;;;14.50;;
7029;SDS011;3556;53.500;10.176;2022-10-31T15:03:35;25.00;;;14.63;;
7029;SDS011;3556;53.500;10.176;2022-10-31T15:06:11;26.93;;;16.10;;
7029;SDS011;3556;53.500;10.176;2022-10-31T15:08:41;21.87;;;16.63;;
7029;SDS011;3556;53.500;10.176;2022-10-31T15:11:20;24.30;;;14.37;;
7029;SDS011;3556;53.500;10.176;2022-10-31T15:13:48;17.70;;;14.80;;
7029;SDS011;3556;53.500;10.176;2022-10-31T15:16:19;24.93;;;15.13;;
7029;SDS011;3556;53.500;10.176;2022-10-31T15:18:48;22.47;;;13.07;;
7029;SDS011;3556;53.500;10.176;2022-10-31T15:21:20;20.93;;;15.13;;
7029;SDS011;3556;53.500;10.176;2022-10-31T15:23:48;48.07;;;20.70;;
7029;SDS011;3556;53.500;10.176;2022-10-31T15:26:20;22.07;;;13.60;;
7029;SDS011;3556;53.500;10.176;2022-10-31T15:31:30;26.50;;;14.00;;
7029;SDS011;3556;53.500;10.176;2022-10-31T15:33:57;31.10;;;13.50;;
7029;SDS011;3556;53.500;10.176;2022-10-31T15:36:27;18.30;;;12.60;;
7029;SDS011;3556;53.500;10.176;2022-10-31T15:38:54;23.57;;;13.67;;
7029;SDS011;3556;53.500;10.176;2022-10-31T15:43:49;21.97;;;13.80;;
7029;SDS011;3556;53.500;10.176;2022-10-31T15:46:16;25.33;;;13.20;;
7029;SDS011;3556;53.500;10.176;2022-10-31T15:48:44;27.13;;;14.63;;
7029;SDS011;3556;53.500;10.176;2022-10-31T15:51:11;18.63;;;12.27;;
7029;SDS011;3556;53.500;10.176;2022-10-31T15:53:44;19.33;;;12.37;;
7029;SDS011;3556;53.500;10.176;2022-10-31T15:56:18;29.63;;;14.20;;
7029;SDS011;3556;53.500;10.176;2022-10-31T15:58:47;23.27;;;14.03;;
7029;SDS011;3556;53.500;10.176;2022-10-31T16:01:33;22.13;;;12.40;;
7029;SDS011;3556;53.500;10.176;2022-10-31T16:06:45;29.53;;;14.93;;
7029;SDS011;3556;53.500;10.176;2022-10-31T16:09:23;17.83;;;12.60;;
7029;SDS011;3556;53.500;10.176;2022-10-31T16:11:49;26.83;;;13.93;;
7029;SDS011;3556;53.500;10.176;2022-10-31T16:14:16;27.97;;;15.87;;
7029;SDS011;3556;53.500;10.176;2022-10-31T16:16:51;31.27;;;16.90;;
7029;SDS011;3556;53.500;10.176;2022-10-31T16:19:22;30.37;;;14.40;;
7029;SDS011;3556;53.500;10.176;2022-10-31T16:21:53;33.20;;;15.77;;
7029;SDS011;3556;53.500;10.176;2022-10-31T16:24:27;26.03;;;14.40;;
7029;SDS011;3556;53.500;10.176;2022-10-31T16:26:59;36.83;;;14.83;;
7029;SDS011;3556;53.500;10.176;2022-10-31T16:29:43;26.00;;;14.27;;
7029;SDS011;3556;53.500;10.176;2022-10-31T16:35:00;28.10;;;15.20;;
7029;SDS011;3556;53.500;10.176;2022-10-31T16:37:41;24.67;;;15.20;;
7029;SDS011;3556;53.500;10.176;2022-10-31T16:40:11;27.57;;;14.50;;
7029;SDS011;3556;53.500;10.176;2022-10-31T16:42:38;32.27;;;16.57;;
7029;SDS011;3556;53.500;10.176;2022-10-31T16:45:05;33.20;;;15.90;;
7029;SDS011;3556;53.500;10.176;2022-10-31T16:47:31;27.03;;;14.80;;
7029;SDS011;3556;53.500;10.176;2022-10-31T16:49:57;31.17;;;15.70;;
7029;SDS011;3556;53.500;10.176;2022-10-31T16:52:24;35.77;;;16.30;;
7029;SDS011;3556;53.500;10.176;2022-10-31T16:54:50;27.00;;;15.90;;
7029;SDS011;3556;53.500;10.176;2022-10-31T16:57:17;34.90;;;17.23;;